Time;durP1;ratioP1;P1;durP2;ratioP2;P2;SDS_P1;SDS_P2;PMS_P1;PMS_P2;Temp;Humidity;BMP_temperature;BMP_pressure;BME280_temperature;BME280_humidity;BME280_pressure;Samples;Min_cycle;Max_cycle;Signal;HPM_P1;HPM_P2
2022/11/11 00:00:37;;;;;;;40.00;6.95;;;;;;;;;;5050500;28;20037;-55
2022/11/11 00:03:04;;;;;;;38.05;7.53;;;;;;;;;;5050601;28;20090;-57
2022/11/11 00:05:33;;;;;;;39.83;7.72;;;;;;;;;;5050935;28;20044;-55
2022/11/11 00:08:00;;;;;;;49.72;8.30;;;;;;;;;;5050718;28;20040;-56
2022/11/11 00:10:28;;;;;;;41.25;7.53;;;;;;;;;;5051616;28;20060;-54
2022/11/11 00:12:58;;;;;;;38.63;8.27;;;;;;;;;;5052061;28;20060;-53
2022/11/11 00:15:25;;;;;;;46.20;9.52;;;;;;;;;;5052027;28;20112;-53
2022/11/11 00:26:09;;;;;;;44.08;8.73;;;;;;;;;;5032487;28;20111;-54
2022/11/11 00:28:36;;;;;;;38.45;7.45;;;;;;;;;;5031250;28;20158;-55
2022/11/11 00:31:07;;;;;;;35.53;8.05;;;;;;;;;;5032230;28;20037;-56
2022/11/11 00:33:34;;;;;;;39.97;7.60;;;;;;;;;;5049016;28;20048;-56
2022/11/11 00:36:01;;;;;;;40.70;8.40;;;;;;;;;;5050427;28;20020;-54
2022/11/11 00:38:47;;;;;;;42.92;8.93;;;;;;;;;;5048978;28;20429;-50
2022/11/11 00:41:15;;;;;;;47.60;8.98;;;;;;;;;;5050004;28;20471;-55
2022/11/11 00:43:43;;;;;;;37.13;8.70;;;;;;;;;;5050422;28;20479;-53
2022/11/11 00:51:41;;;;;;;36.97;7.63;;;;;;;;;;5032388;28;20173;-54
2022/11/11 00:54:08;;;;;;;30.20;6.63;;;;;;;;;;5031198;28;20080;-54
2022/11/11 00:56:35;;;;;;;72.00;11.63;;;;;;;;;;5045258;28;20025;-55
2022/11/11 00:59:03;;;;;;;63.67;14.27;;;;;;;;;;5031676;28;20361;-54
2022/11/11 01:01:30;;;;;;;100.38;20.02;;;;;;;;;;5028532;28;20022;-54
2022/11/11 01:03:58;;;;;;;93.40;21.13;;;;;;;;;;5030667;28;20503;-55
2022/11/11 01:06:25;;;;;;;136.20;28.52;;;;;;;;;;5031282;28;20034;-56
2022/11/11 01:08:52;;;;;;;126.82;29.65;;;;;;;;;;5029597;28;20079;-56
2022/11/11 01:11:20;;;;;;;136.90;30.77;;;;;;;;;;5028467;28;20050;-52
2022/11/11 01:13:48;;;;;;;138.68;33.55;;;;;;;;;;5031673;28;20028;-53
2022/11/11 01:16:23;;;;;;;142.52;31.27;;;;;;;;;;5044489;28;20032;-56
2022/11/11 01:18:51;;;;;;;154.23;33.00;;;;;;;;;;5053063;28;20025;-55
2022/11/11 01:21:20;;;;;;;142.13;31.77;;;;;;;;;;5047623;28;20025;-50
2022/11/11 01:23:48;;;;;;;111.50;25.27;;;;;;;;;;5052587;28;20017;-53
2022/11/11 01:26:25;;;;;;;87.15;18.67;;;;;;;;;;5053248;28;20040;-54
2022/11/11 01:28:54;;;;;;;75.18;16.35;;;;;;;;;;5050277;28;20058;-52
2022/11/11 01:31:22;;;;;;;65.25;14.85;;;;;;;;;;5052959;28;20036;-54
2022/11/11 01:33:50;;;;;;;59.72;13.32;;;;;;;;;;5052536;28;20024;-56
2022/11/11 01:36:27;;;;;;;66.22;11.90;;;;;;;;;;5053419;28;20025;-50
2022/11/11 01:38:55;;;;;;;55.50;11.13;;;;;;;;;;5053539;28;20540;-53
2022/11/11 01:41:34;;;;;;;48.15;9.48;;;;;;;;;;5052351;28;20025;-52
2022/11/11 01:44:13;;;;;;;34.17;7.60;;;;;;;;;;5042919;28;20037;-53
2022/11/11 01:46:43;;;;;;;31.58;6.47;;;;;;;;;;5035391;28;20037;-55
2022/11/11 01:49:19;;;;;;;29.27;6.28;;;;;;;;;;5035558;28;20041;-53
2022/11/11 01:52:04;;;;;;;29.88;6.60;;;;;;;;;;5035377;28;20383;-54
2022/11/11 01:54:39;;;;;;;36.28;6.70;;;;;;;;;;5035162;28;20076;-50
2022/11/11 01:57:11;;;;;;;40.58;8.35;;;;;;;;;;5048262;28;20026;-54
2022/11/11 01:59:38;;;;;;;;;;;;;;;;;;5035921;28;20079;-54
2022/11/11 02:02:09;;;;;;;35.95;8.45;;;;;;;;;;5035025;28;19997;-49
2022/11/11 02:07:22;;;;;;;42.08;9.45;;;;;;;;;;5048423;28;20103;-50
2022/11/11 02:09:51;;;;;;;44.97;9.85;;;;;;;;;;5053778;28;20029;-54
2022/11/11 02:15:05;;;;;;;44.42;9.68;;;;;;;;;;5053280;28;20064;-51
2022/11/11 02:17:32;;;;;;;33.88;9.02;;;;;;;;;;5053722;28;20122;-50
2022/11/11 02:20:00;;;;;;;43.75;9.57;;;;;;;;;;5052948;28;20459;-52
2022/11/11 02:22:32;;;;;;;41.60;8.90;;;;;;;;;;5050221;28;20398;-53
2022/11/11 02:25:01;;;;;;;44.25;9.88;;;;;;;;;;5033445;28;20025;-52
2022/11/11 02:27:30;;;;;;;39.45;9.77;;;;;;;;;;5036745;28;20060;-49
2022/11/11 02:29:58;;;;;;;35.63;9.63;;;;;;;;;;5053153;28;20403;-50
2022/11/11 02:32:25;;;;;;;33.00;8.23;;;;;;;;;;5052981;28;20036;-48
2022/11/11 02:34:52;;;;;;;31.55;8.48;;;;;;;;;;5053056;28;20033;-50
2022/11/11 02:37:24;;;;;;;32.25;8.73;;;;;;;;;;5046182;28;20021;-52
2022/11/11 02:39:53;;;;;;;39.13;8.73;;;;;;;;;;5053118;28;20128;-50
2022/11/11 02:42:21;;;;;;;37.97;9.10;;;;;;;;;;5053256;28;20054;-48
2022/11/11 02:44:48;;;;;;;28.08;8.10;;;;;;;;;;5052949;28;20044;-49
2022/11/11 02:47:16;;;;;;;25.85;7.72;;;;;;;;;;5052896;28;20032;-49
2022/11/11 02:49:43;;;;;;;33.80;7.95;;;;;;;;;;5053100;28;20407;-51
2022/11/11 02:52:10;;;;;;;29.67;7.65;;;;;;;;;;5052838;28;20025;-56
2022/11/11 02:54:38;;;;;;;35.80;8.38;;;;;;;;;;5052370;28;20041;-50
2022/11/11 02:57:08;;;;;;;27.92;7.55;;;;;;;;;;5052823;28;20058;-49
2022/11/11 02:59:40;;;;;;;28.52;8.25;;;;;;;;;;5034444;28;20057;-48
2022/11/11 03:02:07;;;;;;;;;;;;;;;;;;5034586;28;20496;-50
2022/11/11 03:04:36;;;;;;;25.73;7.70;;;;;;;;;;5034386;28;19954;-51
2022/11/11 03:07:03;;;;;;;30.00;7.75;;;;;;;;;;5034217;28;20048;-51
2022/11/11 03:09:30;;;;;;;24.15;7.85;;;;;;;;;;5034153;28;20025;-51
2022/11/11 03:11:57;;;;;;;32.45;8.20;;;;;;;;;;5034068;28;20041;-49
2022/11/11 03:14:24;;;;;;;25.52;7.38;;;;;;;;;;5034126;28;20108;-48
2022/11/11 03:19:37;;;;;;;23.08;6.78;;;;;;;;;;5034035;28;20060;-48
2022/11/11 03:22:04;;;;;;;20.30;6.72;;;;;;;;;;5033987;28;20044;-51
2022/11/11 03:27:16;;;;;;;17.42;6.57;;;;;;;;;;5033744;28;20414;-48
2022/11/11 03:29:43;;;;;;;21.27;6.82;;;;;;;;;;5033896;28;20029;-50
2022/11/11 03:32:13;;;;;;;26.15;7.32;;;;;;;;;;5034083;28;20029;-49
2022/11/11 03:34:40;;;;;;;22.35;7.43;;;;;;;;;;5033754;28;20056;-49
2022/11/11 03:39:54;;;;;;;20.27;6.15;;;;;;;;;;5033947;28;20132;-48
2022/11/11 03:42:21;;;;;;;21.30;6.78;;;;;;;;;;5033744;28;20022;-48
2022/11/11 03:44:48;;;;;;;22.38;7.25;;;;;;;;;;5033574;28;20384;-48
2022/11/11 03:47:15;;;;;;;24.17;6.32;;;;;;;;;;5033461;28;20434;-49
2022/11/11 03:49:44;;;;;;;18.15;6.18;;;;;;;;;;5033502;28;20103;-49
2022/11/11 03:52:12;;;;;;;20.65;6.35;;;;;;;;;;5033397;28;20057;-50
2022/11/11 03:54:38;;;;;;;14.32;5.40;;;;;;;;;;5033476;28;20485;-48
2022/11/11 03:59:51;;;;;;;20.20;5.70;;;;;;;;;;5033312;28;20063;-48
2022/11/11 04:10:32;;;;;;;20.60;5.72;;;;;;;;;;5032943;28;20408;-48
2022/11/11 04:24:00;;;;;;;15.82;5.25;;;;;;;;;;5033098;28;20638;-50
2022/11/11 04:26:27;;;;;;;21.05;5.85;;;;;;;;;;5032787;28;20419;-48
2022/11/11 04:32:34;;;;;;;15.98;4.65;;;;;;;;;;5032651;28;20407;-49
2022/11/11 04:34:26;;;;;;;16.50;4.97;;;;;;;;;;5032652;28;20090;-49
2022/11/11 04:36:53;;;;;;;14.50;4.63;;;;;;;;;;5032602;28;20029;-48
2022/11/11 04:42:05;;;;;;;10.73;4.38;;;;;;;;;;5031496;28;20090;-51
2022/11/11 04:47:17;;;;;;;15.30;4.63;;;;;;;;;;5032107;28;20179;-49
2022/11/11 04:49:44;;;;;;;14.32;4.95;;;;;;;;;;5032513;28;20061;-50
2022/11/11 04:52:26;;;;;;;14.77;4.80;;;;;;;;;;5032581;28;20034;-48
2022/11/11 04:57:46;;;;;;;10.75;4.50;;;;;;;;;;5020871;28;20091;-52
2022/11/11 05:00:14;;;;;;;16.77;5.07;;;;;;;;;;5032423;28;20074;-48
2022/11/11 05:05:27;;;;;;;11.88;4.03;;;;;;;;;;5032183;28;20048;-52
2022/11/11 05:10:39;;;;;;;16.17;4.55;;;;;;;;;;5032265;28;20411;-49
2022/11/11 05:21:26;;;;;;;14.07;4.40;;;;;;;;;;5032252;28;20434;-50
2022/11/11 05:26:38;;;;;;;19.60;4.65;;;;;;;;;;5032005;28;20056;-49
2022/11/11 05:29:05;;;;;;;17.85;4.88;;;;;;;;;;5031985;28;20101;-48
2022/11/11 05:31:32;;;;;;;17.98;4.32;;;;;;;;;;5032242;28;20038;-51
2022/11/11 05:33:59;;;;;;;10.80;3.78;;;;;;;;;;5032115;28;20522;-48
2022/11/11 05:36:26;;;;;;;16.63;4.88;;;;;;;;;;5031854;28;20021;-49
2022/11/11 05:38:53;;;;;;;12.88;3.83;;;;;;;;;;5032088;28;20025;-50
2022/11/11 05:41:20;;;;;;;13.27;3.90;;;;;;;;;;5031881;28;20480;-49
2022/11/11 05:43:47;;;;;;;12.43;4.05;;;;;;;;;;5030706;28;20049;-51
2022/11/11 05:46:14;;;;;;;13.27;4.32;;;;;;;;;;5031857;28;20061;-50
2022/11/11 05:49:14;;;;;;;12.85;3.90;;;;;;;;;;5032011;28;20064;-49
2022/11/11 05:51:28;;;;;;;12.98;3.70;;;;;;;;;;5031802;28;20045;-48
2022/11/11 05:53:56;;;;;;;13.98;4.07;;;;;;;;;;5031936;28;20029;-49
2022/11/11 05:56:23;;;;;;;10.82;3.83;;;;;;;;;;5043486;28;20037;-50
2022/11/11 05:58:50;;;;;;;11.90;4.22;;;;;;;;;;5033548;28;20112;-50
2022/11/11 06:01:17;;;;;;;12.63;4.05;;;;;;;;;;5031614;28;20037;-49
2022/11/11 06:03:44;;;;;;;14.57;3.65;;;;;;;;;;5034110;28;20055;-50
2022/11/11 06:06:11;;;;;;;11.90;4.10;;;;;;;;;;5035339;28;20064;-50
2022/11/11 06:08:38;;;;;;;8.43;3.42;;;;;;;;;;5035325;28;20108;-50
2022/11/11 06:11:05;;;;;;;11.32;3.83;;;;;;;;;;5034959;28;20041;-50
2022/11/11 06:13:32;;;;;;;12.18;3.70;;;;;;;;;;5035453;28;20036;-51
2022/11/11 06:16:00;;;;;;;9.88;3.70;;;;;;;;;;5035102;28;20064;-52
2022/11/11 06:18:27;;;;;;;13.55;3.38;;;;;;;;;;5035380;28;20483;-52
2022/11/11 06:20:57;;;;;;;8.82;3.40;;;;;;;;;;5035157;28;20025;-48
2022/11/11 06:23:25;;;;;;;9.60;3.33;;;;;;;;;;5035142;28;20403;-48
2022/11/11 06:28:37;;;;;;;9.60;3.58;;;;;;;;;;5035201;28;20048;-48
2022/11/11 06:31:06;;;;;;;11.90;3.35;;;;;;;;;;5034936;28;20044;-49
2022/11/11 06:33:34;;;;;;;11.23;3.83;;;;;;;;;;5035055;28;20033;-51
2022/11/11 06:36:01;;;;;;;11.57;3.60;;;;;;;;;;5034774;28;20034;-49
2022/11/11 06:38:28;;;;;;;10.20;3.22;;;;;;;;;;5034903;28;20072;-51
2022/11/11 06:40:55;;;;;;;9.88;3.35;;;;;;;;;;5034714;28;20021;-51
2022/11/11 06:43:23;;;;;;;14.50;3.70;;;;;;;;;;5034754;28;20120;-53
2022/11/11 06:45:53;;;;;;;9.95;3.65;;;;;;;;;;5034494;28;20068;-52
2022/11/11 06:48:20;;;;;;;7.35;2.85;;;;;;;;;;5034598;28;20491;-48
2022/11/11 06:50:48;;;;;;;7.78;2.88;;;;;;;;;;5034554;28;20578;-48
2022/11/11 06:53:16;;;;;;;8.95;3.08;;;;;;;;;;5034432;28;20032;-51
2022/11/11 06:55:43;;;;;;;10.23;3.05;;;;;;;;;;5040822;28;20033;-49
2022/11/11 06:58:11;;;;;;;8.38;3.05;;;;;;;;;;5041918;28;20029;-48
2022/11/11 07:00:39;;;;;;;10.70;3.10;;;;;;;;;;5034419;28;20037;-50
2022/11/11 07:03:07;;;;;;;10.57;3.03;;;;;;;;;;5034499;28;20040;-50
2022/11/11 07:05:34;;;;;;;7.10;2.50;;;;;;;;;;5034210;28;20049;-51
2022/11/11 07:08:02;;;;;;;6.45;2.95;;;;;;;;;;5034308;28;20036;-51
2022/11/11 07:10:29;;;;;;;8.18;2.80;;;;;;;;;;5033512;28;20175;-50
2022/11/11 07:12:56;;;;;;;9.93;3.13;;;;;;;;;;5034096;28;20033;-50
2022/11/11 07:15:24;;;;;;;9.23;2.97;;;;;;;;;;5034297;28;20040;-48
2022/11/11 07:17:51;;;;;;;11.10;2.90;;;;;;;;;;5034181;28;20025;-53
2022/11/11 07:20:18;;;;;;;7.50;2.65;;;;;;;;;;5034008;28;20037;-48
2022/11/11 07:22:45;;;;;;;9.20;2.35;;;;;;;;;;5034134;28;20042;-54
2022/11/11 07:25:12;;;;;;;7.50;2.75;;;;;;;;;;5033887;28;20029;-48
2022/11/11 07:27:39;;;;;;;8.88;2.78;;;;;;;;;;5032577;28;20033;-50
2022/11/11 07:30:06;;;;;;;7.10;2.85;;;;;;;;;;5033963;28;20029;-49
2022/11/11 07:32:34;;;;;;;8.95;2.30;;;;;;;;;;5033868;28;20480;-49
2022/11/11 07:35:01;;;;;;;10.23;2.90;;;;;;;;;;5033684;28;20047;-51
2022/11/11 07:37:28;;;;;;;7.55;2.80;;;;;;;;;;5033571;28;20034;-54
2022/11/11 07:39:55;;;;;;;11.93;2.65;;;;;;;;;;5033793;28;20116;-51
2022/11/11 07:42:22;;;;;;;7.40;2.60;;;;;;;;;;5033637;28;20033;-51
2022/11/11 07:44:48;;;;;;;7.05;2.70;;;;;;;;;;5033531;28;20068;-52
2022/11/11 07:47:15;;;;;;;6.90;2.58;;;;;;;;;;5033495;28;20037;-50
2022/11/11 07:49:42;;;;;;;8.27;2.90;;;;;;;;;;5033488;28;20065;-50
2022/11/11 07:52:09;;;;;;;8.00;2.55;;;;;;;;;;5041520;28;20075;-50
2022/11/11 07:54:36;;;;;;;5.95;2.55;;;;;;;;;;5051349;28;20021;-50
2022/11/11 07:57:03;;;;;;;6.05;2.25;;;;;;;;;;5051488;28;20032;-51
2022/11/11 07:59:30;;;;;;;5.22;2.10;;;;;;;;;;5051883;28;20021;-50
2022/11/11 08:01:58;;;;;;;7.90;2.30;;;;;;;;;;5051577;28;20029;-52
2022/11/11 08:04:25;;;;;;;6.75;2.40;;;;;;;;;;5051850;28;20395;-56
2022/11/11 08:06:52;;;;;;;6.68;2.45;;;;;;;;;;5051524;28;20569;-50
2022/11/11 08:09:19;;;;;;;7.25;2.25;;;;;;;;;;5051656;28;20056;-49
2022/11/11 08:14:31;;;;;;;6.63;2.70;;;;;;;;;;5051508;28;20036;-51
2022/11/11 08:16:58;;;;;;;6.28;2.38;;;;;;;;;;5051571;28;20061;-48
2022/11/11 08:19:25;;;;;;;5.47;2.28;;;;;;;;;;5042230;28;20108;-48
2022/11/11 08:21:52;;;;;;;9.43;2.42;;;;;;;;;;5032351;28;20025;-51
2022/11/11 08:24:19;;;;;;;6.43;2.17;;;;;;;;;;5032695;28;20029;-49
2022/11/11 08:26:46;;;;;;;6.90;2.25;;;;;;;;;;5032571;28;20045;-50
2022/11/11 08:29:13;;;;;;;3.92;2.10;;;;;;;;;;5032884;28;20051;-48
2022/11/11 08:31:40;;;;;;;3.78;1.92;;;;;;;;;;5048947;28;20025;-48
2022/11/11 08:34:07;;;;;;;7.32;2.53;;;;;;;;;;5044025;28;20041;-49
2022/11/11 08:36:34;;;;;;;4.88;2.28;;;;;;;;;;5032555;28;20025;-48
2022/11/11 08:39:01;;;;;;;4.72;1.92;;;;;;;;;;5032501;28;20118;-49
2022/11/11 08:41:28;;;;;;;7.15;2.20;;;;;;;;;;5032806;28;20104;-50
2022/11/11 08:43:55;;;;;;;6.03;2.00;;;;;;;;;;5032538;28;20029;-49
2022/11/11 08:46:22;;;;;;;7.55;2.28;;;;;;;;;;5032472;28;20041;-51
2022/11/11 08:48:49;;;;;;;7.82;2.05;;;;;;;;;;5032282;28;20484;-50
2022/11/11 08:51:16;;;;;;;3.92;1.95;;;;;;;;;;5032497;28;20103;-52
2022/11/11 08:53:43;;;;;;;6.10;2.10;;;;;;;;;;5032303;28;20091;-51
2022/11/11 08:56:11;;;;;;;5.50;2.05;;;;;;;;;;5042570;28;20025;-49
2022/11/11 08:58:38;;;;;;;5.32;1.75;;;;;;;;;;5035904;28;20132;-49
2022/11/11 09:01:10;;;;;;;4.55;1.88;;;;;;;;;;5032468;28;20033;-48
2022/11/11 09:03:38;;;;;;;4.00;2.10;;;;;;;;;;5032285;28;20036;-52
2022/11/11 09:06:04;;;;;;;5.18;2.17;;;;;;;;;;5041922;28;20475;-49
2022/11/11 09:08:31;;;;;;;6.65;1.90;;;;;;;;;;5032310;28;20033;-52
2022/11/11 09:10:59;;;;;;;5.53;1.75;;;;;;;;;;5031917;28;20057;-54
2022/11/11 09:13:26;;;;;;;4.90;1.75;;;;;;;;;;5032246;28;20076;-49
2022/11/11 09:15:56;;;;;;;4.07;1.90;;;;;;;;;;5032319;28;20099;-52
2022/11/11 09:18:23;;;;;;;5.00;1.98;;;;;;;;;;5032075;28;20037;-51
2022/11/11 09:20:50;;;;;;;3.65;1.67;;;;;;;;;;5032307;28;20167;-50
2022/11/11 09:23:17;;;;;;;4.93;2.00;;;;;;;;;;5032140;28;20443;-51
2022/11/11 09:25:44;;;;;;;5.35;2.25;;;;;;;;;;5032139;28;20037;-48
2022/11/11 09:28:12;;;;;;;4.93;2.00;;;;;;;;;;5030932;28;20025;-50
2022/11/11 09:30:38;;;;;;;4.43;1.80;;;;;;;;;;5031974;28;20112;-51
2022/11/11 09:33:05;;;;;;;4.65;1.95;;;;;;;;;;5032030;28;20569;-48
2022/11/11 09:35:33;;;;;;;5.85;2.05;;;;;;;;;;5035943;28;20057;-49
2022/11/11 09:38:00;;;;;;;4.50;1.98;;;;;;;;;;5036003;28;20036;-51
2022/11/11 09:40:35;;;;;;;5.57;2.10;;;;;;;;;;5035939;28;20037;-51
2022/11/11 09:43:08;;;;;;;3.75;1.52;;;;;;;;;;5035910;28;20419;-50
2022/11/11 09:45:41;;;;;;;6.28;2.00;;;;;;;;;;5035553;28;20111;-50
2022/11/11 09:48:26;;;;;;;4.18;1.60;;;;;;;;;;5035870;28;20064;-48
2022/11/11 09:50:55;;;;;;;4.20;1.95;;;;;;;;;;5035728;28;20025;-50
2022/11/11 09:53:28;;;;;;;2.80;1.55;;;;;;;;;;5052905;28;20013;-50
2022/11/11 09:55:58;;;;;;;3.92;1.85;;;;;;;;;;5049813;28;20017;-51
2022/11/11 09:58:34;;;;;;;7.38;1.88;;;;;;;;;;5040903;28;20048;-51
2022/11/11 10:01:15;;;;;;;4.28;1.88;;;;;;;;;;5035637;28;20040;-52
2022/11/11 10:04:01;;;;;;;4.65;1.98;;;;;;;;;;5035622;28;20034;-48
2022/11/11 10:06:30;;;;;;;4.30;1.75;;;;;;;;;;5035035;28;20103;-50
2022/11/11 10:09:08;;;;;;;4.35;2.00;;;;;;;;;;5034229;28;20104;-51
2022/11/11 10:11:50;;;;;;;4.13;2.22;;;;;;;;;;5047205;28;20131;-52
2022/11/11 10:14:18;;;;;;;5.78;2.10;;;;;;;;;;5035643;28;20260;-48
2022/11/11 10:16:47;;;;;;;6.05;2.20;;;;;;;;;;5035234;28;20037;-49
2022/11/11 10:19:24;;;;;;;4.97;1.92;;;;;;;;;;5035206;28;20025;-49
2022/11/11 10:21:52;;;;;;;6.28;2.00;;;;;;;;;;5035270;28;20365;-48
2022/11/11 10:24:32;;;;;;;4.55;2.03;;;;;;;;;;5035103;28;20041;-50
2022/11/11 10:27:05;;;;;;;4.53;1.85;;;;;;;;;;5034836;28;20515;-54
2022/11/11 10:29:38;;;;;;;4.20;1.73;;;;;;;;;;5034981;28;20029;-50
2022/11/11 10:32:05;;;;;;;5.53;1.88;;;;;;;;;;5034916;28;20033;-50
2022/11/11 10:34:33;;;;;;;3.90;1.98;;;;;;;;;;5034843;28;20025;-53
2022/11/11 10:37:01;;;;;;;2.75;1.70;;;;;;;;;;5034868;28;20029;-50
2022/11/11 10:39:46;;;;;;;3.97;1.90;;;;;;;;;;5034759;28;20029;-50
2022/11/11 10:42:16;;;;;;;5.78;2.03;;;;;;;;;;5046156;28;20379;-49
2022/11/11 10:44:43;;;;;;;4.28;2.17;;;;;;;;;;5052838;28;20039;-49
2022/11/11 10:47:28;;;;;;;4.60;2.08;;;;;;;;;;5052401;28;20037;-50
2022/11/11 10:49:59;;;;;;;6.57;2.15;;;;;;;;;;5053251;28;20060;-52
2022/11/11 10:52:31;;;;;;;3.88;2.00;;;;;;;;;;5075650;23;20500;-56
2022/11/11 10:55:07;;;;;;;5.43;2.10;;;;;;;;;;5030567;28;20375;-49
2022/11/11 10:57:43;;;;;;;3.60;1.60;;;;;;;;;;5033506;28;20037;-54
2022/11/11 11:00:13;;;;;;;5.55;2.30;;;;;;;;;;5033360;28;20021;-54
2022/11/11 11:02:49;;;;;;;5.28;2.08;;;;;;;;;;5033080;28;20017;-54
2022/11/11 11:05:27;;;;;;;3.75;1.80;;;;;;;;;;5032897;28;20029;-53
2022/11/11 11:07:57;;;;;;;4.90;2.03;;;;;;;;;;5033022;28;20025;-51
2022/11/11 11:10:32;;;;;;;4.72;2.17;;;;;;;;;;5032096;28;20163;-49
2022/11/11 11:13:02;;;;;;;7.38;1.83;;;;;;;;;;5032324;28;20500;-54
2022/11/11 11:15:29;;;;;;;5.10;1.80;;;;;;;;;;5026035;28;20018;-49
2022/11/11 11:18:11;;;;;;;8.98;2.25;;;;;;;;;;5025226;28;20025;-55
2022/11/11 11:20:38;;;;;;;32.63;3.38;;;;;;;;;;5011705;28;20087;-57
2022/11/11 11:23:05;;;;;;;15.45;2.45;;;;;;;;;;5011207;28;20083;-51
2022/11/11 11:25:33;;;;;;;11.30;2.53;;;;;;;;;;5012007;28;20032;-47
2022/11/11 11:28:17;;;;;;;18.67;3.03;;;;;;;;;;5012601;28;20053;-54
2022/11/11 11:30:58;;;;;;;22.02;3.85;;;;;;;;;;5019570;28;20071;-55
2022/11/11 11:33:25;;;;;;;165.30;16.60;;;;;;;;;;5028116;28;20021;-54
2022/11/11 11:35:52;;;;;;;30.17;5.05;;;;;;;;;;5030095;28;20029;-56
2022/11/11 11:38:20;;;;;;;17.98;3.80;;;;;;;;;;5031965;28;20035;-53
2022/11/11 11:40:49;;;;;;;16.90;3.40;;;;;;;;;;5032181;28;20022;-54
2022/11/11 11:43:34;;;;;;;14.73;3.00;;;;;;;;;;5032031;28;20078;-58
2022/11/11 11:46:16;;;;;;;10.10;3.10;;;;;;;;;;5032885;28;20036;-54
2022/11/11 11:48:46;;;;;;;9.43;2.42;;;;;;;;;;5032905;28;20048;-58
2022/11/11 11:51:14;;;;;;;14.52;3.40;;;;;;;;;;5031596;28;20030;-59
2022/11/11 11:54:05;;;;;;;8.00;2.20;;;;;;;;;;5032686;28;20051;-58
2022/11/11 11:56:37;;;;;;;8.40;2.80;;;;;;;;;;5033161;28;20024;-58
2022/11/11 11:59:22;;;;;;;10.07;2.55;;;;;;;;;;5025619;28;20208;-58
2022/11/11 12:01:53;;;;;;;11.50;2.80;;;;;;;;;;5031674;28;20426;-56
2022/11/11 12:04:32;;;;;;;12.38;2.53;;;;;;;;;;5033124;28;20112;-49
2022/11/11 12:07:09;;;;;;;14.85;2.72;;;;;;;;;;5023549;28;20056;-48
2022/11/11 12:09:43;;;;;;;15.38;2.35;;;;;;;;;;5015759;28;20029;-47
2022/11/11 12:12:32;;;;;;;11.98;2.33;;;;;;;;;;5030006;28;20491;-48
2022/11/11 12:15:22;;;;;;;5.38;2.20;;;;;;;;;;5030944;28;20092;-55
2022/11/11 12:18:07;;;;;;;6.22;2.05;;;;;;;;;;5032398;28;20032;-52
2022/11/11 12:20:42;;;;;;;18.42;2.67;;;;;;;;;;5032536;28;20479;-46
2022/11/11 12:23:26;;;;;;;5.95;1.95;;;;;;;;;;5032132;28;20379;-48
2022/11/11 12:25:53;;;;;;;5.05;1.60;;;;;;;;;;5031034;28;20047;-47
2022/11/11 12:28:35;;;;;;;11.18;1.92;;;;;;;;;;5032319;28;20033;-47
2022/11/11 12:31:05;;;;;;;14.00;2.38;;;;;;;;;;5032554;28;20022;-47
2022/11/11 12:33:39;;;;;;;5.35;1.48;;;;;;;;;;5032169;28;20025;-52
2022/11/11 12:36:08;;;;;;;5.32;1.75;;;;;;;;;;5030770;28;20021;-48
2022/11/11 12:38:58;;;;;;;4.05;1.48;;;;;;;;;;5047670;28;20021;-46
2022/11/11 12:41:28;;;;;;;4.95;1.67;;;;;;;;;;5031343;28;20069;-47
2022/11/11 12:44:13;;;;;;;4.72;1.63;;;;;;;;;;5031406;28;20331;-47
2022/11/11 12:46:58;;;;;;;3.58;1.40;;;;;;;;;;5030922;28;20048;-51
2022/11/11 12:49:37;;;;;;;3.58;1.42;;;;;;;;;;5031720;28;20021;-50
2022/11/11 12:52:22;;;;;;;4.82;1.55;;;;;;;;;;5031258;28;20049;-48
2022/11/11 12:55:00;;;;;;;3.67;1.50;;;;;;;;;;5031265;28;20117;-52
2022/11/11 12:57:43;;;;;;;3.65;1.30;;;;;;;;;;5018193;28;20120;-48
2022/11/11 13:00:16;;;;;;;5.55;1.33;;;;;;;;;;5031768;28;20033;-48
2022/11/11 13:03:01;;;;;;;10.32;1.85;;;;;;;;;;5031771;28;20112;-61
2022/11/11 13:05:31;;;;;;;5.60;1.70;;;;;;;;;;5032234;28;20044;-60
2022/11/11 13:08:16;;;;;;;7.75;1.45;;;;;;;;;;5028891;28;20483;-59
2022/11/11 13:10:53;;;;;;;4.43;1.40;;;;;;;;;;5027592;28;20045;-60
2022/11/11 13:13:26;;;;;;;4.25;1.40;;;;;;;;;;5026171;28;20033;-59
2022/11/11 13:15:53;;;;;;;15.90;1.80;;;;;;;;;;5030830;28;20029;-60
2022/11/11 13:18:24;;;;;;;3.22;1.27;;;;;;;;;;5031103;28;20021;-59
2022/11/11 13:20:54;;;;;;;4.57;1.70;;;;;;;;;;5032164;28;20056;-59
2022/11/11 13:23:21;;;;;;;4.75;1.35;;;;;;;;;;5030777;28;20038;-59
2022/11/11 13:25:52;;;;;;;5.30;1.55;;;;;;;;;;5031572;28;20061;-59
2022/11/11 13:28:24;;;;;;;6.05;1.90;;;;;;;;;;5030569;28;20072;-59
2022/11/11 13:30:51;;;;;;;4.75;2.33;;;;;;;;;;5031524;28;20033;-59
2022/11/11 13:33:22;;;;;;;7.18;2.08;;;;;;;;;;5031078;28;20034;-60
2022/11/11 13:35:56;;;;;;;13.35;1.85;;;;;;;;;;5031551;28;20364;-60
2022/11/11 13:38:28;;;;;;;13.32;2.20;;;;;;;;;;5031780;28;20451;-60
2022/11/11 13:40:57;;;;;;;6.85;1.88;;;;;;;;;;5031953;28;20502;-60
2022/11/11 13:43:30;;;;;;;8.85;2.13;;;;;;;;;;5032065;28;20120;-60
2022/11/11 13:45:58;;;;;;;10.82;2.20;;;;;;;;;;5031853;28;20506;-59
2022/11/11 13:48:25;;;;;;;8.32;2.13;;;;;;;;;;5032028;28;20446;-60
2022/11/11 13:50:53;;;;;;;10.80;2.50;;;;;;;;;;5031851;28;20037;-59
2022/11/11 13:53:26;;;;;;;16.73;2.50;;;;;;;;;;5031845;28;20049;-59
2022/11/11 13:55:54;;;;;;;17.35;2.33;;;;;;;;;;5031830;28;20037;-59
2022/11/11 13:58:26;;;;;;;8.55;2.10;;;;;;;;;;5031966;28;20090;-60
2022/11/11 14:01:00;;;;;;;9.20;2.40;;;;;;;;;;5031781;28;20438;-59
2022/11/11 14:03:29;;;;;;;7.25;1.95;;;;;;;;;;5031871;28;20057;-62
2022/11/11 14:06:14;;;;;;;6.85;1.83;;;;;;;;;;5032153;28;20044;-59
2022/11/11 14:08:44;;;;;;;10.82;2.30;;;;;;;;;;5031868;28;20025;-59
2022/11/11 14:11:31;;;;;;;8.27;2.47;;;;;;;;;;5047046;28;20086;-59
2022/11/11 14:13:59;;;;;;;7.03;1.70;;;;;;;;;;5031629;28;20041;-59
2022/11/11 14:16:35;;;;;;;9.27;2.22;;;;;;;;;;5031801;28;20022;-60
2022/11/11 14:19:20;;;;;;;13.75;3.22;;;;;;;;;;5031711;28;20364;-60
2022/11/11 14:21:55;;;;;;;14.50;2.50;;;;;;;;;;5034030;28;20030;-61
2022/11/11 14:24:35;;;;;;;10.82;3.05;;;;;;;;;;5035140;28;20056;-60
2022/11/11 14:27:25;;;;;;;20.50;3.10;;;;;;;;;;5035272;28;20073;-60
2022/11/11 14:29:53;;;;;;;10.05;3.17;;;;;;;;;;5035251;28;20434;-61
2022/11/11 14:32:33;;;;;;;13.85;3.55;;;;;;;;;;5035001;28;20030;-60
2022/11/11 14:35:18;;;;;;;11.05;3.40;;;;;;;;;;5035220;28;20112;-61
2022/11/11 14:38:00;;;;;;;8.27;2.90;;;;;;;;;;5050306;28;20124;-61
2022/11/11 14:40:32;;;;;;;6.97;2.60;;;;;;;;;;5034890;28;20582;-61
2022/11/11 14:43:00;;;;;;;10.77;2.40;;;;;;;;;;5034976;28;20489;-61
2022/11/11 14:45:30;;;;;;;7.30;2.10;;;;;;;;;;5034787;28;20029;-60
2022/11/11 14:47:57;;;;;;;8.82;2.05;;;;;;;;;;5034807;28;20058;-61
2022/11/11 14:50:33;;;;;;;7.80;2.30;;;;;;;;;;5049483;28;20029;-60
2022/11/11 14:53:02;;;;;;;4.90;1.98;;;;;;;;;;5014966;28;20140;-60
2022/11/11 14:55:32;;;;;;;6.55;2.17;;;;;;;;;;5026655;28;20463;-61
2022/11/11 14:58:18;;;;;;;11.38;2.10;;;;;;;;;;5014289;28;20029;-60
2022/11/11 15:00:50;;;;;;;7.97;1.95;;;;;;;;;;5013959;28;20049;-62
2022/11/11 15:03:17;;;;;;;7.10;1.95;;;;;;;;;;5014111;28;20022;-61
2022/11/11 15:06:13;;;;;;;9.80;1.90;;;;;;;;;;5014000;28;20041;-61
2022/11/11 15:08:46;;;;;;;7.80;2.03;;;;;;;;;;5012046;28;20048;-61
2022/11/11 15:11:17;;;;;;;6.47;1.98;;;;;;;;;;5013881;28;20056;-61
2022/11/11 15:14:01;;;;;;;5.57;2.10;;;;;;;;;;5013869;28;20049;-60
2022/11/11 15:16:35;;;;;;;7.22;2.10;;;;;;;;;;5013899;28;20022;-61
2022/11/11 15:19:02;;;;;;;6.63;1.77;;;;;;;;;;5013847;28;20018;-60
2022/11/11 15:21:36;;;;;;;9.48;2.05;;;;;;;;;;5013790;28;20037;-60
2022/11/11 15:24:03;;;;;;;6.97;1.60;;;;;;;;;;5024492;28;20064;-61
2022/11/11 15:26:40;;;;;;;4.72;1.60;;;;;;;;;;5013608;28;20065;-61
2022/11/11 15:29:20;;;;;;;7.50;1.60;;;;;;;;;;5013796;28;20022;-61
2022/11/11 15:31:47;;;;;;;4.68;1.10;;;;;;;;;;5025178;28;20526;-60
2022/11/11 15:34:17;;;;;;;4.22;1.50;;;;;;;;;;5033835;28;20025;-60
2022/11/11 15:36:52;;;;;;;4.78;1.00;;;;;;;;;;5033918;28;20111;-60
2022/11/11 15:39:21;;;;;;;5.28;1.10;;;;;;;;;;5033691;28;20021;-61
2022/11/11 15:41:49;;;;;;;6.35;1.70;;;;;;;;;;5033255;28;20037;-61
2022/11/11 15:44:16;;;;;;;6.28;1.38;;;;;;;;;;5032478;28;20036;-61
2022/11/11 15:46:44;;;;;;;4.10;1.42;;;;;;;;;;5031275;28;20120;-60
2022/11/11 15:49:15;;;;;;;5.00;1.38;;;;;;;;;;5024682;28;20033;-62
2022/11/11 15:51:42;;;;;;;6.40;1.48;;;;;;;;;;5012115;28;20050;-61
2022/11/11 15:54:17;;;;;;;7.75;1.80;;;;;;;;;;5012682;28;20033;-61
2022/11/11 15:56:44;;;;;;;6.78;1.60;;;;;;;;;;5028024;28;20041;-61
2022/11/11 15:59:24;;;;;;;4.97;1.73;;;;;;;;;;5033457;28;20030;-63
2022/11/11 16:01:54;;;;;;;7.43;1.42;;;;;;;;;;5033252;28;20444;-61
2022/11/11 16:04:22;;;;;;;5.55;1.42;;;;;;;;;;5033358;28;20029;-61
2022/11/11 16:06:49;;;;;;;4.05;1.65;;;;;;;;;;5030327;28;20566;-61
2022/11/11 16:09:19;;;;;;;4.63;1.42;;;;;;;;;;5018708;28;20117;-60
2022/11/11 16:11:47;;;;;;;7.82;1.70;;;;;;;;;;5032295;28;20029;-61
2022/11/11 16:14:35;;;;;;;5.95;1.55;;;;;;;;;;5038215;28;20395;-62
2022/11/11 16:17:03;;;;;;;6.43;1.30;;;;;;;;;;5031879;28;20060;-61
2022/11/11 16:19:30;;;;;;;5.78;1.40;;;;;;;;;;5030107;28;20049;-60